sensor_id;sensor_type;location;lat;lon;timestamp;P1;durP1;ratioP1;P2;durP2;ratioP2
48613;SDS011;34408;51.426;5.444;2022-09-04T00:01:36;4.15;;;2.90;;
48613;SDS011;34408;51.426;5.444;2022-09-04T00:04:17;4.30;;;3.05;;
48613;SDS011;34408;51.426;5.444;2022-09-04T00:06:53;4.05;;;2.90;;
48613;SDS011;34408;51.426;5.444;2022-09-04T00:09:32;6.60;;;3.05;;
48613;SDS011;34408;51.426;5.444;2022-09-04T00:12:07;4.05;;;2.83;;
48613;SDS011;34408;51.426;5.444;2022-09-04T00:14:39;4.82;;;2.80;;
48613;SDS011;34408;51.426;5.444;2022-09-04T00:17:09;4.43;;;3.30;;
48613;SDS011;34408;51.426;5.444;2022-09-04T00:19:45;5.43;;;2.90;;
48613;SDS011;34408;51.426;5.444;2022-09-04T00:24:53;4.45;;;2.90;;
48613;SDS011;34408;51.426;5.444;2022-09-04T00:27:28;3.78;;;2.78;;
48613;SDS011;34408;51.426;5.444;2022-09-04T00:30:08;3.58;;;2.60;;
48613;SDS011;34408;51.426;5.444;2022-09-04T00:32:42;5.32;;;2.90;;
48613;SDS011;34408;51.426;5.444;2022-09-04T00:35:19;3.33;;;2.70;;
48613;SDS011;34408;51.426;5.444;2022-09-04T00:37:50;3.95;;;2.95;;
48613;SDS011;34408;51.426;5.444;2022-09-04T00:40:25;6.03;;;3.10;;
48613;SDS011;34408;51.426;5.444;2022-09-04T00:43:10;3.83;;;2.75;;
48613;SDS011;34408;51.426;5.444;2022-09-04T00:45:57;4.07;;;3.00;;
48613;SDS011;34408;51.426;5.444;2022-09-04T00:51:40;4.35;;;3.03;;
48613;SDS011;34408;51.426;5.444;2022-09-04T01:00:21;4.20;;;2.80;;
48613;SDS011;34408;51.426;5.444;2022-09-04T01:03:00;5.38;;;3.00;;
48613;SDS011;34408;51.426;5.444;2022-09-04T01:05:42;6.07;;;3.37;;
48613;SDS011;34408;51.426;5.444;2022-09-04T01:08:27;5.28;;;3.05;;
48613;SDS011;34408;51.426;5.444;2022-09-04T01:11:07;4.45;;;2.58;;
48613;SDS011;34408;51.426;5.444;2022-09-04T01:13:41;4.38;;;2.63;;
48613;SDS011;34408;51.426;5.444;2022-09-04T01:16:18;3.55;;;2.42;;
48613;SDS011;34408;51.426;5.444;2022-09-04T01:18:52;4.15;;;3.00;;
48613;SDS011;34408;51.426;5.444;2022-09-04T01:21:38;4.97;;;3.10;;
48613;SDS011;34408;51.426;5.444;2022-09-04T01:24:40;5.50;;;2.80;;
48613;SDS011;34408;51.426;5.444;2022-09-04T01:27:23;3.40;;;2.60;;
48613;SDS011;34408;51.426;5.444;2022-09-04T01:29:55;5.15;;;3.15;;
48613;SDS011;34408;51.426;5.444;2022-09-04T01:32:31;3.72;;;2.80;;
48613;SDS011;34408;51.426;5.444;2022-09-04T01:35:23;5.35;;;2.97;;
48613;SDS011;34408;51.426;5.444;2022-09-04T01:38:01;5.47;;;2.80;;
48613;SDS011;34408;51.426;5.444;2022-09-04T01:40:37;5.35;;;2.72;;
48613;SDS011;34408;51.426;5.444;2022-09-04T01:43:12;4.38;;;2.92;;
48613;SDS011;34408;51.426;5.444;2022-09-04T01:46:10;4.35;;;3.00;;
48613;SDS011;34408;51.426;5.444;2022-09-04T01:48:47;5.07;;;3.05;;
48613;SDS011;34408;51.426;5.444;2022-09-04T01:51:23;4.47;;;3.00;;
48613;SDS011;34408;51.426;5.444;2022-09-04T01:54:03;3.85;;;2.90;;
48613;SDS011;34408;51.426;5.444;2022-09-04T01:56:40;4.80;;;3.10;;
48613;SDS011;34408;51.426;5.444;2022-09-04T01:59:17;4.15;;;2.92;;
48613;SDS011;34408;51.426;5.444;2022-09-04T02:01:54;4.13;;;2.95;;
48613;SDS011;34408;51.426;5.444;2022-09-04T02:04:30;4.65;;;2.80;;
48613;SDS011;34408;51.426;5.444;2022-09-04T02:07:08;5.68;;;3.50;;
48613;SDS011;34408;51.426;5.444;2022-09-04T02:09:48;5.55;;;3.08;;
48613;SDS011;34408;51.426;5.444;2022-09-04T02:12:28;6.63;;;3.13;;
48613;SDS011;34408;51.426;5.444;2022-09-04T02:15:05;5.72;;;3.13;;
48613;SDS011;34408;51.426;5.444;2022-09-04T02:17:40;3.90;;;2.88;;
48613;SDS011;34408;51.426;5.444;2022-09-04T02:20:15;3.67;;;2.63;;
48613;SDS011;34408;51.426;5.444;2022-09-04T02:22:53;4.57;;;3.03;;
48613;SDS011;34408;51.426;5.444;2022-09-04T02:25:31;4.10;;;2.58;;
48613;SDS011;34408;51.426;5.444;2022-09-04T02:28:12;5.38;;;3.15;;
48613;SDS011;34408;51.426;5.444;2022-09-04T02:30:53;4.57;;;2.78;;
48613;SDS011;34408;51.426;5.444;2022-09-04T02:33:28;3.47;;;2.75;;
48613;SDS011;34408;51.426;5.444;2022-09-04T02:36:06;4.13;;;2.78;;
48613;SDS011;34408;51.426;5.444;2022-09-04T02:38:40;5.68;;;3.38;;
48613;SDS011;34408;51.426;5.444;2022-09-04T02:41:18;3.72;;;2.63;;
48613;SDS011;34408;51.426;5.444;2022-09-04T02:44:05;5.18;;;2.92;;
48613;SDS011;34408;51.426;5.444;2022-09-04T02:46:51;3.70;;;2.92;;
48613;SDS011;34408;51.426;5.444;2022-09-04T02:49:29;4.68;;;2.85;;
48613;SDS011;34408;51.426;5.444;2022-09-04T02:52:09;4.97;;;2.72;;
48613;SDS011;34408;51.426;5.444;2022-09-04T02:54:51;4.78;;;3.08;;
48613;SDS011;34408;51.426;5.444;2022-09-04T02:57:31;7.13;;;3.05;;
48613;SDS011;34408;51.426;5.444;2022-09-04T03:00:14;6.65;;;2.90;;
48613;SDS011;34408;51.426;5.444;2022-09-04T03:02:49;6.60;;;2.92;;
48613;SDS011;34408;51.426;5.444;2022-09-04T03:05:23;3.65;;;2.65;;
48613;SDS011;34408;51.426;5.444;2022-09-04T03:07:55;4.15;;;2.83;;
48613;SDS011;34408;51.426;5.444;2022-09-04T03:10:29;3.20;;;2.75;;
48613;SDS011;34408;51.426;5.444;2022-09-04T03:13:03;5.13;;;3.45;;
48613;SDS011;34408;51.426;5.444;2022-09-04T03:15:35;4.03;;;3.10;;
48613;SDS011;34408;51.426;5.444;2022-09-04T03:18:13;3.47;;;2.60;;
48613;SDS011;34408;51.426;5.444;2022-09-04T03:20:47;4.00;;;2.58;;
48613;SDS011;34408;51.426;5.444;2022-09-04T03:23:22;4.30;;;2.80;;
48613;SDS011;34408;51.426;5.444;2022-09-04T03:26:03;4.03;;;2.70;;
48613;SDS011;34408;51.426;5.444;2022-09-04T03:28:45;5.55;;;2.40;;
48613;SDS011;34408;51.426;5.444;2022-09-04T03:31:32;4.43;;;3.05;;
48613;SDS011;34408;51.426;5.444;2022-09-04T03:34:14;3.65;;;3.17;;
48613;SDS011;34408;51.426;5.444;2022-09-04T03:36:56;4.05;;;3.10;;
48613;SDS011;34408;51.426;5.444;2022-09-04T03:39:39;3.88;;;2.83;;
48613;SDS011;34408;51.426;5.444;2022-09-04T03:42:18;4.40;;;2.80;;
48613;SDS011;34408;51.426;5.444;2022-09-04T03:44:59;3.67;;;3.00;;
48613;SDS011;34408;51.426;5.444;2022-09-04T03:47:36;3.83;;;2.92;;
48613;SDS011;34408;51.426;5.444;2022-09-04T03:50:17;5.85;;;3.03;;
48613;SDS011;34408;51.426;5.444;2022-09-04T03:52:54;3.78;;;2.70;;
48613;SDS011;34408;51.426;5.444;2022-09-04T03:55:34;3.72;;;2.83;;
48613;SDS011;34408;51.426;5.444;2022-09-04T03:58:33;4.05;;;3.33;;
48613;SDS011;34408;51.426;5.444;2022-09-04T04:01:13;4.57;;;3.00;;
48613;SDS011;34408;51.426;5.444;2022-09-04T04:03:54;4.13;;;2.90;;
48613;SDS011;34408;51.426;5.444;2022-09-04T04:06:34;3.45;;;3.05;;
48613;SDS011;34408;51.426;5.444;2022-09-04T04:09:15;4.75;;;3.08;;
48613;SDS011;34408;51.426;5.444;2022-09-04T04:12:02;5.00;;;3.25;;
48613;SDS011;34408;51.426;5.444;2022-09-04T04:17:54;3.80;;;2.88;;
48613;SDS011;34408;51.426;5.444;2022-09-04T04:20:40;3.95;;;2.55;;
48613;SDS011;34408;51.426;5.444;2022-09-04T04:26:26;3.63;;;2.60;;
48613;SDS011;34408;51.426;5.444;2022-09-04T04:29:10;5.35;;;2.70;;
48613;SDS011;34408;51.426;5.444;2022-09-04T04:32:14;4.55;;;2.92;;
48613;SDS011;34408;51.426;5.444;2022-09-04T04:35:00;6.03;;;3.05;;
48613;SDS011;34408;51.426;5.444;2022-09-04T04:37:45;9.52;;;3.03;;
48613;SDS011;34408;51.426;5.444;2022-09-04T04:40:29;5.00;;;3.38;;
48613;SDS011;34408;51.426;5.444;2022-09-04T04:43:09;4.68;;;3.10;;
48613;SDS011;34408;51.426;5.444;2022-09-04T04:45:47;4.03;;;2.90;;
48613;SDS011;34408;51.426;5.444;2022-09-04T04:51:11;3.88;;;3.05;;
48613;SDS011;34408;51.426;5.444;2022-09-04T04:54:12;5.80;;;3.05;;
48613;SDS011;34408;51.426;5.444;2022-09-04T04:56:52;4.78;;;3.13;;
48613;SDS011;34408;51.426;5.444;2022-09-04T04:59:29;4.88;;;3.00;;
48613;SDS011;34408;51.426;5.444;2022-09-04T05:02:08;4.43;;;3.40;;
48613;SDS011;34408;51.426;5.444;2022-09-04T05:04:43;4.30;;;3.30;;
48613;SDS011;34408;51.426;5.444;2022-09-04T05:07:20;4.85;;;3.28;;
48613;SDS011;34408;51.426;5.444;2022-09-04T05:10:03;7.15;;;3.00;;
48613;SDS011;34408;51.426;5.444;2022-09-04T05:12:47;5.07;;;3.13;;
48613;SDS011;34408;51.426;5.444;2022-09-04T05:15:22;10.93;;;3.58;;
48613;SDS011;34408;51.426;5.444;2022-09-04T05:17:55;5.00;;;3.13;;
48613;SDS011;34408;51.426;5.444;2022-09-04T05:20:28;3.72;;;3.25;;
48613;SDS011;34408;51.426;5.444;2022-09-04T05:23:10;6.30;;;3.42;;
48613;SDS011;34408;51.426;5.444;2022-09-04T05:25:45;5.05;;;2.97;;
48613;SDS011;34408;51.426;5.444;2022-09-04T05:30:55;4.72;;;3.25;;
48613;SDS011;34408;51.426;5.444;2022-09-04T05:33:33;5.78;;;3.30;;
48613;SDS011;34408;51.426;5.444;2022-09-04T05:36:08;4.03;;;3.20;;
48613;SDS011;34408;51.426;5.444;2022-09-04T05:38:45;5.10;;;3.22;;
48613;SDS011;34408;51.426;5.444;2022-09-04T05:41:25;5.13;;;3.67;;
48613;SDS011;34408;51.426;5.444;2022-09-04T05:44:17;7.50;;;3.35;;
48613;SDS011;34408;51.426;5.444;2022-09-04T05:47:03;4.15;;;2.92;;
48613;SDS011;34408;51.426;5.444;2022-09-04T05:49:41;4.43;;;3.00;;
48613;SDS011;34408;51.426;5.444;2022-09-04T05:52:37;6.32;;;3.13;;
48613;SDS011;34408;51.426;5.444;2022-09-04T05:55:27;4.60;;;2.85;;
48613;SDS011;34408;51.426;5.444;2022-09-04T05:58:08;4.50;;;3.65;;
48613;SDS011;34408;51.426;5.444;2022-09-04T06:00:57;5.80;;;3.25;;
48613;SDS011;34408;51.426;5.444;2022-09-04T06:03:46;5.22;;;3.15;;
48613;SDS011;34408;51.426;5.444;2022-09-04T06:06:28;4.53;;;2.90;;
48613;SDS011;34408;51.426;5.444;2022-09-04T06:09:15;4.10;;;3.10;;
48613;SDS011;34408;51.426;5.444;2022-09-04T06:15:05;3.67;;;2.80;;
48613;SDS011;34408;51.426;5.444;2022-09-04T06:17:52;3.30;;;2.80;;
48613;SDS011;34408;51.426;5.444;2022-09-04T06:20:35;3.90;;;3.15;;
48613;SDS011;34408;51.426;5.444;2022-09-04T06:23:19;7.05;;;3.50;;
48613;SDS011;34408;51.426;5.444;2022-09-04T06:26:06;4.60;;;2.90;;
48613;SDS011;34408;51.426;5.444;2022-09-04T06:28:58;3.80;;;2.72;;
48613;SDS011;34408;51.426;5.444;2022-09-04T06:31:56;4.10;;;2.88;;
48613;SDS011;34408;51.426;5.444;2022-09-04T06:35:05;3.50;;;2.77;;
48613;SDS011;34408;51.426;5.444;2022-09-04T06:37:44;4.75;;;2.92;;
48613;SDS011;34408;51.426;5.444;2022-09-04T06:40:31;3.58;;;2.83;;
48613;SDS011;34408;51.426;5.444;2022-09-04T06:43:15;4.70;;;3.15;;
48613;SDS011;34408;51.426;5.444;2022-09-04T06:45:56;3.85;;;2.70;;
48613;SDS011;34408;51.426;5.444;2022-09-04T06:48:34;3.10;;;2.38;;
48613;SDS011;34408;51.426;5.444;2022-09-04T06:51:16;4.07;;;2.78;;
48613;SDS011;34408;51.426;5.444;2022-09-04T06:53:56;3.60;;;2.60;;
48613;SDS011;34408;51.426;5.444;2022-09-04T06:56:40;5.30;;;2.50;;
48613;SDS011;34408;51.426;5.444;2022-09-04T06:59:34;2.65;;;2.30;;
48613;SDS011;34408;51.426;5.444;2022-09-04T07:02:29;3.75;;;2.80;;
48613;SDS011;34408;51.426;5.444;2022-09-04T07:05:09;4.50;;;2.20;;
48613;SDS011;34408;51.426;5.444;2022-09-04T07:07:47;3.58;;;2.65;;
48613;SDS011;34408;51.426;5.444;2022-09-04T07:10:25;3.65;;;2.53;;
48613;SDS011;34408;51.426;5.444;2022-09-04T07:13:19;4.47;;;2.70;;
48613;SDS011;34408;51.426;5.444;2022-09-04T07:16:18;3.67;;;2.55;;
48613;SDS011;34408;51.426;5.444;2022-09-04T07:19:00;3.47;;;2.50;;
48613;SDS011;34408;51.426;5.444;2022-09-04T07:21:46;4.32;;;2.40;;
48613;SDS011;34408;51.426;5.444;2022-09-04T07:24:41;3.00;;;2.45;;
48613;SDS011;34408;51.426;5.444;2022-09-04T07:27:19;3.03;;;2.30;;
48613;SDS011;34408;51.426;5.444;2022-09-04T07:30:02;2.83;;;2.20;;
48613;SDS011;34408;51.426;5.444;2022-09-04T07:32:33;4.15;;;2.70;;
48613;SDS011;34408;51.426;5.444;2022-09-04T07:35:09;4.15;;;2.80;;
48613;SDS011;34408;51.426;5.444;2022-09-04T07:37:44;4.85;;;2.70;;
48613;SDS011;34408;51.426;5.444;2022-09-04T07:40:25;3.03;;;2.33;;
48613;SDS011;34408;51.426;5.444;2022-09-04T07:43:04;5.13;;;2.85;;
48613;SDS011;34408;51.426;5.444;2022-09-04T07:45:38;5.07;;;2.50;;
48613;SDS011;34408;51.426;5.444;2022-09-04T07:48:17;9.63;;;2.88;;
48613;SDS011;34408;51.426;5.444;2022-09-04T07:53:35;4.07;;;2.30;;
48613;SDS011;34408;51.426;5.444;2022-09-04T07:56:28;3.53;;;2.20;;
48613;SDS011;34408;51.426;5.444;2022-09-04T07:59:07;4.50;;;2.50;;
48613;SDS011;34408;51.426;5.444;2022-09-04T08:01:56;3.28;;;2.33;;
48613;SDS011;34408;51.426;5.444;2022-09-04T08:07:47;3.20;;;2.20;;
48613;SDS011;34408;51.426;5.444;2022-09-04T08:10:30;3.90;;;2.65;;
48613;SDS011;34408;51.426;5.444;2022-09-04T08:13:12;4.30;;;2.30;;
48613;SDS011;34408;51.426;5.444;2022-09-04T08:15:51;4.60;;;2.55;;
48613;SDS011;34408;51.426;5.444;2022-09-04T08:18:36;4.20;;;2.75;;
48613;SDS011;34408;51.426;5.444;2022-09-04T08:21:20;4.30;;;2.33;;
48613;SDS011;34408;51.426;5.444;2022-09-04T08:23:58;5.85;;;2.50;;
48613;SDS011;34408;51.426;5.444;2022-09-04T08:26:39;4.70;;;2.50;;
48613;SDS011;34408;51.426;5.444;2022-09-04T08:29:20;8.10;;;2.65;;
48613;SDS011;34408;51.426;5.444;2022-09-04T08:32:01;4.15;;;2.53;;
48613;SDS011;34408;51.426;5.444;2022-09-04T08:34:48;5.97;;;2.42;;
48613;SDS011;34408;51.426;5.444;2022-09-04T08:37:37;4.20;;;2.85;;
48613;SDS011;34408;51.426;5.444;2022-09-04T08:40:22;3.70;;;2.53;;
48613;SDS011;34408;51.426;5.444;2022-09-04T08:43:21;5.25;;;2.72;;
48613;SDS011;34408;51.426;5.444;2022-09-04T08:49:13;5.38;;;2.75;;
48613;SDS011;34408;51.426;5.444;2022-09-04T08:55:30;5.10;;;2.85;;
48613;SDS011;34408;51.426;5.444;2022-09-04T09:01:27;3.67;;;2.72;;
48613;SDS011;34408;51.426;5.444;2022-09-04T09:07:55;5.05;;;2.40;;
48613;SDS011;34408;51.426;5.444;2022-09-04T09:10:44;5.32;;;3.05;;
48613;SDS011;34408;51.426;5.444;2022-09-04T09:13:48;8.07;;;2.90;;
48613;SDS011;34408;51.426;5.444;2022-09-04T09:16:41;7.07;;;2.80;;
48613;SDS011;34408;51.426;5.444;2022-09-04T09:19:19;7.72;;;2.90;;
48613;SDS011;34408;51.426;5.444;2022-09-04T09:22:06;5.78;;;3.28;;
48613;SDS011;34408;51.426;5.444;2022-09-04T09:24:47;3.92;;;2.85;;
48613;SDS011;34408;51.426;5.444;2022-09-04T09:27:42;4.35;;;3.10;;
48613;SDS011;34408;51.426;5.444;2022-09-04T09:30:35;5.72;;;3.33;;
48613;SDS011;34408;51.426;5.444;2022-09-04T09:40:06;4.38;;;3.00;;
48613;SDS011;34408;51.426;5.444;2022-09-04T09:46:09;4.15;;;2.40;;
48613;SDS011;34408;51.426;5.444;2022-09-04T09:49:04;4.70;;;2.40;;
48613;SDS011;34408;51.426;5.444;2022-09-04T09:52:12;6.03;;;3.30;;
48613;SDS011;34408;51.426;5.444;2022-09-04T09:55:14;5.18;;;2.88;;
48613;SDS011;34408;51.426;5.444;2022-09-04T10:01:06;3.60;;;2.20;;
48613;SDS011;34408;51.426;5.444;2022-09-04T10:04:03;4.97;;;2.75;;
48613;SDS011;34408;51.426;5.444;2022-09-04T10:09:46;5.18;;;2.88;;
48613;SDS011;34408;51.426;5.444;2022-09-04T10:15:46;4.13;;;2.10;;
48613;SDS011;34408;51.426;5.444;2022-09-04T10:22:00;2.85;;;2.17;;
48613;SDS011;34408;51.426;5.444;2022-09-04T10:24:53;3.17;;;2.10;;
48613;SDS011;34408;51.426;5.444;2022-09-04T10:27:53;4.78;;;2.53;;
48613;SDS011;34408;51.426;5.444;2022-09-04T10:30:36;3.00;;;2.13;;
48613;SDS011;34408;51.426;5.444;2022-09-04T10:33:22;2.83;;;1.90;;
48613;SDS011;34408;51.426;5.444;2022-09-04T10:36:03;3.63;;;2.15;;
48613;SDS011;34408;51.426;5.444;2022-09-04T10:41:43;4.35;;;2.05;;
48613;SDS011;34408;51.426;5.444;2022-09-04T10:47:35;4.18;;;2.00;;
48613;SDS011;34408;51.426;5.444;2022-09-04T10:50:20;2.90;;;2.03;;
48613;SDS011;34408;51.426;5.444;2022-09-04T10:56:08;3.70;;;2.13;;
48613;SDS011;34408;51.426;5.444;2022-09-04T11:05:06;4.65;;;2.40;;
48613;SDS011;34408;51.426;5.444;2022-09-04T11:11:00;2.95;;;2.40;;
48613;SDS011;34408;51.426;5.444;2022-09-04T11:13:52;3.25;;;1.92;;
48613;SDS011;34408;51.426;5.444;2022-09-04T11:16:57;3.45;;;2.15;;
48613;SDS011;34408;51.426;5.444;2022-09-04T11:23:17;3.33;;;1.90;;
48613;SDS011;34408;51.426;5.444;2022-09-04T11:26:27;4.20;;;1.88;;
48613;SDS011;34408;51.426;5.444;2022-09-04T11:29:17;3.35;;;2.03;;
48613;SDS011;34408;51.426;5.444;2022-09-04T11:32:01;5.75;;;2.22;;
48613;SDS011;34408;51.426;5.444;2022-09-04T11:34:52;3.55;;;2.15;;
48613;SDS011;34408;51.426;5.444;2022-09-04T11:37:57;2.90;;;2.22;;
48613;SDS011;34408;51.426;5.444;2022-09-04T11:40:34;2.72;;;1.75;;
48613;SDS011;34408;51.426;5.444;2022-09-04T11:46:28;4.00;;;2.10;;
48613;SDS011;34408;51.426;5.444;2022-09-04T11:49:16;5.13;;;2.20;;
48613;SDS011;34408;51.426;5.444;2022-09-04T11:52:10;5.15;;;2.88;;
48613;SDS011;34408;51.426;5.444;2022-09-04T11:57:26;3.38;;;2.50;;
48613;SDS011;34408;51.426;5.444;2022-09-04T12:00:05;3.40;;;2.13;;
48613;SDS011;34408;51.426;5.444;2022-09-04T12:05:49;2.85;;;2.00;;
48613;SDS011;34408;51.426;5.444;2022-09-04T12:08:36;3.67;;;2.17;;
48613;SDS011;34408;51.426;5.444;2022-09-04T12:11:29;4.05;;;2.20;;
48613;SDS011;34408;51.426;5.444;2022-09-04T12:14:11;3.83;;;2.08;;
48613;SDS011;34408;51.426;5.444;2022-09-04T12:20:10;4.47;;;2.50;;
48613;SDS011;34408;51.426;5.444;2022-09-04T12:26:21;4.65;;;2.42;;
48613;SDS011;34408;51.426;5.444;2022-09-04T12:29:09;4.00;;;2.10;;
48613;SDS011;34408;51.426;5.444;2022-09-04T12:32:25;3.80;;;2.15;;
48613;SDS011;34408;51.426;5.444;2022-09-04T12:35:20;3.35;;;2.17;;
48613;SDS011;34408;51.426;5.444;2022-09-04T12:38:15;7.60;;;3.00;;
48613;SDS011;34408;51.426;5.444;2022-09-04T12:41:16;4.53;;;2.03;;
48613;SDS011;34408;51.426;5.444;2022-09-04T12:43:50;7.85;;;2.50;;
48613;SDS011;34408;51.426;5.444;2022-09-04T12:46:32;5.38;;;2.83;;
48613;SDS011;34408;51.426;5.444;2022-09-04T12:49:26;5.65;;;2.45;;
48613;SDS011;34408;51.426;5.444;2022-09-04T12:52:17;7.50;;;2.72;;
48613;SDS011;34408;51.426;5.444;2022-09-04T12:55:01;9.13;;;3.10;;
48613;SDS011;34408;51.426;5.444;2022-09-04T12:57:37;7.65;;;2.50;;
48613;SDS011;34408;51.426;5.444;2022-09-04T13:00:12;3.45;;;1.90;;
48613;SDS011;34408;51.426;5.444;2022-09-04T13:02:45;3.60;;;2.25;;
48613;SDS011;34408;51.426;5.444;2022-09-04T13:05:29;3.38;;;2.00;;
48613;SDS011;34408;51.426;5.444;2022-09-04T13:08:23;3.20;;;1.70;;
48613;SDS011;34408;51.426;5.444;2022-09-04T13:10:59;6.65;;;2.03;;
48613;SDS011;34408;51.426;5.444;2022-09-04T13:13:42;4.10;;;2.47;;
48613;SDS011;34408;51.426;5.444;2022-09-04T13:16:20;5.47;;;1.90;;
48613;SDS011;34408;51.426;5.444;2022-09-04T13:18:57;9.05;;;2.17;;
48613;SDS011;34408;51.426;5.444;2022-09-04T13:21:42;3.25;;;1.95;;
48613;SDS011;34408;51.426;5.444;2022-09-04T13:24:24;3.10;;;1.65;;
48613;SDS011;34408;51.426;5.444;2022-09-04T13:27:22;7.03;;;1.80;;
48613;SDS011;34408;51.426;5.444;2022-09-04T13:30:05;6.28;;;1.67;;
48613;SDS011;34408;51.426;5.444;2022-09-04T13:35:42;5.28;;;1.65;;
48613;SDS011;34408;51.426;5.444;2022-09-04T13:44:32;2.97;;;1.45;;
48613;SDS011;34408;51.426;5.444;2022-09-04T13:47:08;3.45;;;1.83;;
48613;SDS011;34408;51.426;5.444;2022-09-04T13:49:42;3.22;;;1.40;;
48613;SDS011;34408;51.426;5.444;2022-09-04T13:52:15;1.70;;;1.35;;
48613;SDS011;34408;51.426;5.444;2022-09-04T13:54:51;2.65;;;1.40;;
48613;SDS011;34408;51.426;5.444;2022-09-04T13:57:27;2.70;;;1.50;;
48613;SDS011;34408;51.426;5.444;2022-09-04T13:59:58;2.55;;;1.42;;
48613;SDS011;34408;51.426;5.444;2022-09-04T14:02:33;2.78;;;1.42;;
48613;SDS011;34408;51.426;5.444;2022-09-04T14:05:05;3.80;;;1.83;;
48613;SDS011;34408;51.426;5.444;2022-09-04T14:07:39;2.80;;;1.30;;
48613;SDS011;34408;51.426;5.444;2022-09-04T14:10:11;2.78;;;1.40;;
48613;SDS011;34408;51.426;5.444;2022-09-04T14:12:57;3.63;;;1.58;;
48613;SDS011;34408;51.426;5.444;2022-09-04T14:21:22;2.85;;;1.40;;
48613;SDS011;34408;51.426;5.444;2022-09-04T14:24:09;2.95;;;1.10;;
48613;SDS011;34408;51.426;5.444;2022-09-04T14:26:48;5.07;;;1.67;;
48613;SDS011;34408;51.426;5.444;2022-09-04T14:29:26;4.72;;;1.50;;
48613;SDS011;34408;51.426;5.444;2022-09-04T14:32:04;2.40;;;1.42;;
48613;SDS011;34408;51.426;5.444;2022-09-04T14:34:46;4.35;;;1.50;;
48613;SDS011;34408;51.426;5.444;2022-09-04T14:37:38;1.55;;;1.30;;
48613;SDS011;34408;51.426;5.444;2022-09-04T14:40:20;2.88;;;1.42;;
48613;SDS011;34408;51.426;5.444;2022-09-04T14:42:53;2.30;;;1.40;;
48613;SDS011;34408;51.426;5.444;2022-09-04T14:45:29;2.53;;;1.48;;
48613;SDS011;34408;51.426;5.444;2022-09-04T14:48:04;3.03;;;1.40;;
48613;SDS011;34408;51.426;5.444;2022-09-04T14:50:42;2.00;;;1.25;;
48613;SDS011;34408;51.426;5.444;2022-09-04T14:53:18;2.45;;;1.48;;
48613;SDS011;34408;51.426;5.444;2022-09-04T14:56:10;2.63;;;1.38;;
48613;SDS011;34408;51.426;5.444;2022-09-04T14:58:49;3.35;;;1.23;;
48613;SDS011;34408;51.426;5.444;2022-09-04T15:01:23;3.23;;;1.50;;
48613;SDS011;34408;51.426;5.444;2022-09-04T15:03:53;2.25;;;1.38;;
48613;SDS011;34408;51.426;5.444;2022-09-04T15:06:26;2.65;;;1.33;;
48613;SDS011;34408;51.426;5.444;2022-09-04T15:09:20;3.70;;;1.30;;
48613;SDS011;34408;51.426;5.444;2022-09-04T15:11:52;2.35;;;1.30;;
48613;SDS011;34408;51.426;5.444;2022-09-04T15:14:41;2.83;;;1.45;;
48613;SDS011;34408;51.426;5.444;2022-09-04T15:17:19;22.08;;;1.77;;
48613;SDS011;34408;51.426;5.444;2022-09-04T15:19:55;3.80;;;1.55;;
48613;SDS011;34408;51.426;5.444;2022-09-04T15:22:31;2.93;;;1.53;;
48613;SDS011;34408;51.426;5.444;2022-09-04T15:25:05;5.00;;;2.25;;
48613;SDS011;34408;51.426;5.444;2022-09-04T15:27:37;5.05;;;1.80;;
48613;SDS011;34408;51.426;5.444;2022-09-04T15:30:16;4.55;;;1.98;;
48613;SDS011;34408;51.426;5.444;2022-09-04T15:32:48;3.65;;;1.85;;
48613;SDS011;34408;51.426;5.444;2022-09-04T15:35:28;8.18;;;2.50;;
48613;SDS011;34408;51.426;5.444;2022-09-04T15:38:03;3.70;;;2.50;;
48613;SDS011;34408;51.426;5.444;2022-09-04T15:40:34;17.27;;;2.55;;
48613;SDS011;34408;51.426;5.444;2022-09-04T15:43:31;7.60;;;2.20;;
48613;SDS011;34408;51.426;5.444;2022-09-04T15:46:04;5.22;;;2.65;;
48613;SDS011;34408;51.426;5.444;2022-09-04T15:48:42;3.08;;;1.92;;
48613;SDS011;34408;51.426;5.444;2022-09-04T15:51:20;8.93;;;2.20;;
48613;SDS011;34408;51.426;5.444;2022-09-04T15:54:06;4.28;;;2.13;;
48613;SDS011;34408;51.426;5.444;2022-09-04T15:56:41;3.55;;;2.65;;
48613;SDS011;34408;51.426;5.444;2022-09-04T15:59:15;8.95;;;6.22;;
48613;SDS011;34408;51.426;5.444;2022-09-04T16:01:48;26.02;;;17.23;;
48613;SDS011;34408;51.426;5.444;2022-09-04T16:04:25;23.83;;;20.17;;
48613;SDS011;34408;51.426;5.444;2022-09-04T16:07:13;19.35;;;13.98;;
48613;SDS011;34408;51.426;5.444;2022-09-04T16:10:00;15.30;;;11.65;;
48613;SDS011;34408;51.426;5.444;2022-09-04T16:12:36;18.38;;;12.25;;
48613;SDS011;34408;51.426;5.444;2022-09-04T16:15:09;15.88;;;9.13;;
48613;SDS011;34408;51.426;5.444;2022-09-04T16:17:44;10.70;;;8.23;;
48613;SDS011;34408;51.426;5.444;2022-09-04T16:20:19;13.93;;;8.68;;
48613;SDS011;34408;51.426;5.444;2022-09-04T16:22:54;11.13;;;8.32;;
48613;SDS011;34408;51.426;5.444;2022-09-04T16:25:26;10.95;;;7.30;;
48613;SDS011;34408;51.426;5.444;2022-09-04T16:27:58;9.93;;;8.13;;
48613;SDS011;34408;51.426;5.444;2022-09-04T16:30:31;9.70;;;7.57;;
48613;SDS011;34408;51.426;5.444;2022-09-04T16:33:03;9.90;;;7.10;;
48613;SDS011;34408;51.426;5.444;2022-09-04T16:35:54;9.30;;;6.38;;
48613;SDS011;34408;51.426;5.444;2022-09-04T16:38:29;10.75;;;6.47;;
48613;SDS011;34408;51.426;5.444;2022-09-04T16:41:00;9.32;;;5.55;;
48613;SDS011;34408;51.426;5.444;2022-09-04T16:43:37;9.50;;;5.22;;
48613;SDS011;34408;51.426;5.444;2022-09-04T16:46:10;8.30;;;5.75;;
48613;SDS011;34408;51.426;5.444;2022-09-04T16:48:49;9.52;;;5.57;;
48613;SDS011;34408;51.426;5.444;2022-09-04T16:51:23;7.20;;;5.30;;
48613;SDS011;34408;51.426;5.444;2022-09-04T16:54:08;9.43;;;5.25;;
48613;SDS011;34408;51.426;5.444;2022-09-04T16:56:43;6.43;;;5.00;;
48613;SDS011;34408;51.426;5.444;2022-09-04T16:59:22;10.18;;;4.95;;
48613;SDS011;34408;51.426;5.444;2022-09-04T17:01:57;7.57;;;4.63;;
48613;SDS011;34408;51.426;5.444;2022-09-04T17:04:29;8.13;;;4.70;;
48613;SDS011;34408;51.426;5.444;2022-09-04T17:07:12;8.75;;;4.57;;
48613;SDS011;34408;51.426;5.444;2022-09-04T17:09:47;6.15;;;4.05;;
48613;SDS011;34408;51.426;5.444;2022-09-04T17:12:23;7.72;;;4.55;;
48613;SDS011;34408;51.426;5.444;2022-09-04T17:15:00;5.95;;;3.92;;
48613;SDS011;34408;51.426;5.444;2022-09-04T17:17:38;6.10;;;4.45;;
48613;SDS011;34408;51.426;5.444;2022-09-04T17:20:08;6.93;;;4.55;;
48613;SDS011;34408;51.426;5.444;2022-09-04T17:22:41;5.65;;;3.97;;
48613;SDS011;34408;51.426;5.444;2022-09-04T17:25:33;9.60;;;4.70;;
48613;SDS011;34408;51.426;5.444;2022-09-04T17:28:32;13.32;;;5.53;;
48613;SDS011;34408;51.426;5.444;2022-09-04T17:31:32;8.48;;;4.60;;
48613;SDS011;34408;51.426;5.444;2022-09-04T17:34:12;7.70;;;4.78;;
48613;SDS011;34408;51.426;5.444;2022-09-04T17:37:07;7.45;;;4.18;;
48613;SDS011;34408;51.426;5.444;2022-09-04T17:40:03;6.43;;;4.20;;
48613;SDS011;34408;51.426;5.444;2022-09-04T17:43:02;7.25;;;3.80;;
48613;SDS011;34408;51.426;5.444;2022-09-04T17:45:52;3.92;;;3.45;;
48613;SDS011;34408;51.426;5.444;2022-09-04T17:48:28;12.52;;;5.60;;
48613;SDS011;34408;51.426;5.444;2022-09-04T17:50:58;19.75;;;7.72;;
48613;SDS011;34408;51.426;5.444;2022-09-04T17:53:28;16.75;;;7.43;;
48613;SDS011;34408;51.426;5.444;2022-09-04T17:56:03;9.43;;;4.88;;
48613;SDS011;34408;51.426;5.444;2022-09-04T17:58:38;12.57;;;5.03;;
48613;SDS011;34408;51.426;5.444;2022-09-04T18:01:09;5.85;;;3.65;;
48613;SDS011;34408;51.426;5.444;2022-09-04T18:03:46;8.13;;;4.30;;
48613;SDS011;34408;51.426;5.444;2022-09-04T18:06:45;7.90;;;3.40;;
48613;SDS011;34408;51.426;5.444;2022-09-04T18:09:18;6.88;;;3.95;;
48613;SDS011;34408;51.426;5.444;2022-09-04T18:11:57;6.88;;;3.35;;
48613;SDS011;34408;51.426;5.444;2022-09-04T18:14:37;4.70;;;3.22;;
48613;SDS011;34408;51.426;5.444;2022-09-04T18:17:18;7.55;;;4.03;;